Observation data for White River Lake on 04/24/2019      Previous  Date  Next       Current Mesonet Observations  Soil Data  Daily Summary Page  Observations in Plain Language
KWVS 240500Z 00006KT 12/10 A30 RMK A01 T01150102  RH  095%=      5-min Rain = 0
KWVS 240505Z 01006KT 12/10 A30 RMK A01 T01150102  RH  095%=      5-min Rain = 0
KWVS 240510Z 01004KT 12/10 A3001 RMK A01 T01160102  RH  095%=      5-min Rain = 0
KWVS 240515Z 02004KT 12/10 A3001 RMK A01 T01170103  RH  094%=      5-min Rain = 0
KWVS 240520Z 02005KT 12/10 A3001 RMK A01 T01170102  RH  094%=      5-min Rain = 0
KWVS 240525Z 02005KT 12/10 A3001 RMK A01 T01160101  RH  094%=      5-min Rain = 0
KWVS 240530Z 01006KT 12/10 A30 RMK A01 T01150101  RH  094%=      5-min Rain = 0
KWVS 240535Z 01006KT 11/10 A2999 RMK A01 T01140100  RH  094%=      5-min Rain = 0
KWVS 240540Z 01007KT 11/10 A2999 RMK A01 T01130100  RH  095%=      5-min Rain = 0
KWVS 240545Z 00008KT 11/10 A2998 RMK A01 T01130100  RH  095%=      5-min Rain = 0
KWVS 240550Z 01007KT 11/10 A2998 RMK A01 T01130100  RH  095%=      5-min Rain = 0
KWVS 240555Z 00007KT 11/10 A2998 RMK A01 T01120100  RH  095%=      5-min Rain = 0
KWVS 240600Z 00008KT 11/10 A2997 RMK A01 T01120101  RH  096%=      5-min Rain = 0
KWVS 240605Z 01007KT 11/10 A2997 RMK A01 T01130102  RH  095%=      5-min Rain = 0
KWVS 240610Z 02007KT 11/10 A2998 RMK A01 T01140101  RH  095%=      5-min Rain = 0
KWVS 240615Z 01007KT 11/10 A2998 RMK A01 T01130101  RH  095%=      5-min Rain = 0
KWVS 240620Z 02007KT 11/10 A2998 RMK A01 T01120100  RH  096%=      5-min Rain = 0
KWVS 240625Z 02006KT 11/10 A2998 RMK A01 T01110100  RH  096%=      5-min Rain = 0
KWVS 240630Z 02007KT 11/10 A2998 RMK A01 T01100099  RH  096%=      5-min Rain = 0
KWVS 240635Z 01007KT 11/10 A2998 RMK A01 T01100099  RH  096%=      5-min Rain = 0
KWVS 240640Z 01006KT 11/10 A2999 RMK A01 T01090099  RH  096%=      5-min Rain = 0
KWVS 240645Z 01006KT 11/10 A2999 RMK A01 T01090098  RH  096%=      5-min Rain = 0
KWVS 240650Z 01006KT 11/10 A2999 RMK A01 T01070097  RH  096%=      5-min Rain = 0
KWVS 240655Z 01006KT 11/10 A2999 RMK A01 T01070097  RH  096%=      5-min Rain = 0
KWVS 240700Z 02006KT 11/10 A30 RMK A01 T01070097  RH  096%=      5-min Rain = 0
KWVS 240705Z 03006KT 11/10 A30 RMK A01 T01080097  RH  096%=      5-min Rain = 0
KWVS 240710Z 02006KT 11/10 A2999 RMK A01 T01070096  RH  096%=      5-min Rain = 0
KWVS 240715Z 02007KT 11/10 A2999 RMK A01 T01080097  RH  096%=      5-min Rain = 0
KWVS 240720Z 02005KT 11/10 A30 RMK A01 T01090097  RH  096%=      5-min Rain = 0
KWVS 240725Z 03005KT 11/10 A30 RMK A01 T01090097  RH  095%=      5-min Rain = 0
KWVS 240730Z 03005KT 11/10 A30 RMK A01 T01080096  RH  095%=      5-min Rain = 0
KWVS 240735Z 03006KT 11/10 A30 RMK A01 T01080097  RH  096%=      5-min Rain = 0
KWVS 240740Z 03006KT 11/10 A2999 RMK A01 T01100097  RH  095%=      5-min Rain = 0
KWVS 240745Z 02006KT 11/10 A2999 RMK A01 T01090097  RH  095%=      5-min Rain = 0
KWVS 240750Z 02006KT 11/10 A2999 RMK A01 T01090096  RH  095%=      5-min Rain = 0
KWVS 240755Z 02006KT 11/10 A2999 RMK A01 T01070095  RH  095%=      5-min Rain = 0
KWVS 240800Z 02006KT 11/10 A2999 RMK A01 T01080096  RH  096%=      5-min Rain = 0
KWVS 240805Z 01007KT 11/10 A2999 RMK A01 T01080096  RH  095%=      5-min Rain = 0
KWVS 240810Z 01007KT 11/10 A2998 RMK A01 T01080096  RH  095%=      5-min Rain = 0
KWVS 240815Z 00008KT 11/10 A2998 RMK A01 T01070096  RH  096%=      5-min Rain = 0
KWVS 240820Z 01009KT 11/10 A2998 RMK A01 T01090097  RH  095%=      5-min Rain = 0
KWVS 240825Z 00007KT 11/10 A2998 RMK A01 T01090096  RH  095%=      5-min Rain = 0
KWVS 240830Z 01006KT 11/10 A2998 RMK A01 T01080096  RH  095%=      5-min Rain = 0
KWVS 240835Z 00006KT 11/09 A2998 RMK A01 T01070094  RH  095%=      5-min Rain = 0
KWVS 240840Z 01007KT 11/09 A2998 RMK A01 T01080094  RH  094%=      5-min Rain = 0
KWVS 240845Z 01007KT 11/10 A2999 RMK A01 T01090095  RH  094%=      5-min Rain = 0
KWVS 240850Z 01008KT 11/10 A2998 RMK A01 T01100096  RH  094%=      5-min Rain = 0
KWVS 240855Z 01008KT 11/10 A2998 RMK A01 T01090095  RH  094%=      5-min Rain = 0
KWVS 240900Z 00008KT 11/10 A2998 RMK A01 T01100095  RH  094%=      5-min Rain = 0
KWVS 240905Z 00007KT 11/10 A2998 RMK A01 T01100095  RH  094%=      5-min Rain = 0
KWVS 240910Z 36007KT 11/10 A2998 RMK A01 T01090095  RH  093%=      5-min Rain = 0
KWVS 240915Z 36007KT 11/09 A2998 RMK A01 T01080094  RH  094%=      5-min Rain = 0
KWVS 240920Z 36007KT 11/09 A2998 RMK A01 T01070093  RH  094%=      5-min Rain = 0
KWVS 240925Z 01006KT 11/09 A2998 RMK A01 T01070092  RH  093%=      5-min Rain = 0
KWVS 240930Z 00006KT 11/09 A2998 RMK A01 T01060091  RH  093%=      5-min Rain = 0
KWVS 240935Z 00006KT 11/09 A2998 RMK A01 T01060089  RH  092%=      5-min Rain = 0
KWVS 240940Z 00007KT 11/09 A2998 RMK A01 T01050087  RH  091%=      5-min Rain = 0
KWVS 240945Z 36006KT 11/09 A2998 RMK A01 T01050086  RH  090%=      5-min Rain = 0
KWVS 240950Z 35006KT 10/09 A2999 RMK A01 T01040085  RH  090%=      5-min Rain = 0
KWVS 240955Z 35007KT 10/09 A2998 RMK A01 T01030085  RH  091%=      5-min Rain = 0
KWVS 241000Z 35007KT 10/09 A2998 RMK A01 T01030086  RH  092%=      5-min Rain = 0
KWVS 241005Z 35006KT 10/09 A2998 RMK A01 T01020086  RH  093%=      5-min Rain = 0
KWVS 241010Z 34007KT 10/09 A2998 RMK A01 T01000085  RH  093%=      5-min Rain = 0
KWVS 241015Z 34007KT 10/08 A2998 RMK A01 T00990083  RH  092%=      5-min Rain = 0
KWVS 241020Z 34007KT 10/08 A2998 RMK A01 T00980082  RH  093%=      5-min Rain = 0
KWVS 241025Z 34006KT 10/08 A2998 RMK A01 T00970081  RH  092%=      5-min Rain = 0
KWVS 241030Z 34007KT 10/08 A2997 RMK A01 T00960080  RH  092%=      5-min Rain = 0
KWVS 241035Z 34006KT 10/08 A2997 RMK A01 T00970079  RH  091%=      5-min Rain = 0
KWVS 241040Z 34007KT 10/08 A2997 RMK A01 T00970078  RH  090%=      5-min Rain = 0
KWVS 241045Z 34007KT 10/08 A2997 RMK A01 T00980079  RH  090%=      5-min Rain = 0
KWVS 241050Z 33006KT 10/08 A2997 RMK A01 T00970079  RH  091%=      5-min Rain = 0
KWVS 241055Z 34006KT 10/08 A2997 RMK A01 T00950079  RH  092%=      5-min Rain = 0
KWVS 241100Z 34007KT 10/08 A2997 RMK A01 T00960080  RH  092%=      5-min Rain = 0
KWVS 241105Z 34008KT 10/08 A2996 RMK A01 T00960079  RH  091%=      5-min Rain = 0
KWVS 241110Z 35008KT 10/08 A2996 RMK A01 T00970077  RH  090%=      5-min Rain = 0
KWVS 241115Z 35008KT 10/08 A2996 RMK A01 T00970077  RH  090%=      5-min Rain = 0
KWVS 241120Z 35008KT 10/08 A2996 RMK A01 T00960076  RH  090%=      5-min Rain = 0
KWVS 241125Z 35007KT 10/08 A2997 RMK A01 T00950076  RH  090%=      5-min Rain = 0
KWVS 241130Z 35007KT 10/08 A2997 RMK A01 T00950075  RH  090%=      5-min Rain = 0
KWVS 241135Z 36006KT 10/07 A2998 RMK A01 T00950074  RH  089%=      5-min Rain = 0
KWVS 241140Z 00005KT 10/07 A2998 RMK A01 T00950072  RH  088%=      5-min Rain = 0
KWVS 241145Z 00005KT 09/07 A2999 RMK A01 T00930071  RH  088%=      5-min Rain = 0
KWVS 241150Z 35004KT 09/07 A2999 RMK A01 T00930070  RH  088%=      5-min Rain = 0
KWVS 241155Z 36004KT 09/07 A2998 RMK A01 T00920069  RH  088%=      5-min Rain = 0
KWVS 241200Z 36005KT 09/07 A2998 RMK A01 T00900069  RH  089%=      5-min Rain = 0
KWVS 241205Z 36005KT 09/07 A2998 RMK A01 T00880067  RH  089%=      5-min Rain = 0
KWVS 241210Z 35005KT 09/07 A2998 RMK A01 T00880066  RH  088%=      5-min Rain = 0
KWVS 241215Z 01003KT 09/07 A2998 RMK A01 T00870065  RH  088%=      5-min Rain = 0
KWVS 241220Z 01004KT 09/06 A2998 RMK A01 T00880062  RH  086%=      5-min Rain = 0
KWVS 241225Z 36005KT 09/06 A2998 RMK A01 T00890060  RH  084%=      5-min Rain = 0
KWVS 241230Z 01006KT 09/06 A2997 RMK A01 T00860060  RH  085%=      5-min Rain = 0
KWVS 241235Z 01007KT 09/06 A2997 RMK A01 T00860058  RH  084%=      5-min Rain = 0
KWVS 241240Z 00007KT 09/06 A2997 RMK A01 T00860058  RH  084%=      5-min Rain = 0
KWVS 241245Z 00007KT 09/06 A2996 RMK A01 T00850060  RH  086%=      5-min Rain = 0
KWVS 241250Z 00008KT 09/06 A2996 RMK A01 T00850062  RH  088%=      5-min Rain = 0
KWVS 241255Z 00008KT 09/06 A2996 RMK A01 T00860063  RH  087%=      5-min Rain = 0
KWVS 241300Z 36007KT 09/06 A2996 RMK A01 T00870063  RH  087%=      5-min Rain = 0
KWVS 241305Z 36006KT 09/06 A2997 RMK A01 T00900064  RH  086%=      5-min Rain = 0
KWVS 241310Z 35006KT 09/07 A2997 RMK A01 T00940066  RH  085%=      5-min Rain = 0
KWVS 241315Z 35006KT 10/07 A2997 RMK A01 T00970067  RH  084%=      5-min Rain = 0
KWVS 241320Z 35005KT 10/07 A2998 RMK A01 T00980067  RH  083%=      5-min Rain = 0
KWVS 241325Z 34005KT 10/07 A2998 RMK A01 T00980067  RH  083%=      5-min Rain = 0
KWVS 241330Z 33006KT 10/07 A2997 RMK A01 T00970068  RH  084%=      5-min Rain = 0
KWVS 241335Z 33006KT 10/07 A2997 RMK A01 T00980066  RH  083%=      5-min Rain = 0
KWVS 241340Z 34007KT 10/07 A2997 RMK A01 T00990066  RH  082%=      5-min Rain = 0
KWVS 241345Z 35008KT 10/06 A2997 RMK A01 T00980063  RH  080%=      5-min Rain = 0
KWVS 241350Z 00008KT 10/06 A2997 RMK A01 T00990061  RH  079%=      5-min Rain = 0
KWVS 241355Z 36008KT 11/06 A2996 RMK A01 T01060064  RH  077%=      5-min Rain = 0
KWVS 241400Z 35008KT 11/06 A2996 RMK A01 T01120063  RH  073%=      5-min Rain = 0
KWVS 241405Z 36009KT 11/06 A2996 RMK A01 T01140063  RH  073%=      5-min Rain = 0
KWVS 241410Z 35009KT 12/07 A2996 RMK A01 T01190065  RH  071%=      5-min Rain = 0
KWVS 241415Z 36009KT 12/07 A2995 RMK A01 T01230065  RH  069%=      5-min Rain = 0
KWVS 241420Z 00009KT 13/07 A2995 RMK A01 T01250065  RH  069%=      5-min Rain = 0
KWVS 241425Z 36009KT 13/06 A2996 RMK A01 T01260064  RH  067%=      5-min Rain = 0
KWVS 241430Z 36008KT 13/07 A2996 RMK A01 T01300065  RH  067%=      5-min Rain = 0
KWVS 241435Z 00010KT 13/07 A2996 RMK A01 T01320067  RH  066%=      5-min Rain = 0
KWVS 241440Z 35009KT 13/07 A2996 RMK A01 T01330066  RH  065%=      5-min Rain = 0
KWVS 241445Z 36009KT 13/07 A2996 RMK A01 T01340066  RH  065%=      5-min Rain = 0
KWVS 241450Z 36010KT 14/06 A2996 RMK A01 T01350061  RH  062%=      5-min Rain = 0
KWVS 241455Z 36008KT 14/06 A2996 RMK A01 T01380063  RH  062%=      5-min Rain = 0
KWVS 241500Z 35009KT 14/06 A2996 RMK A01 T01380060  RH  061%=      5-min Rain = 0
KWVS 241505Z 35009KT 14/06 A2996 RMK A01 T01400061  RH  060%=      5-min Rain = 0
KWVS 241510Z 34010KT 14/06 A2996 RMK A01 T01400063  RH  061%=      5-min Rain = 0
KWVS 241515Z 34009KT 14/07 A2996 RMK A01 T01400065  RH  062%=      5-min Rain = 0
KWVS 241520Z 33009KT 14/07 A2996 RMK A01 T01420066  RH  062%=      5-min Rain = 0
KWVS 241525Z 34010KT 14/07 A2996 RMK A01 T01430065  RH  061%=      5-min Rain = 0
KWVS 241530Z 34008KT 14/06 A2997 RMK A01 T01440063  RH  060%=      5-min Rain = 0
KWVS 241535Z 34006KT 15/07 A2998 RMK A01 T01460067  RH  061%=      5-min Rain = 0
KWVS 241540Z 36005KT 15/07 A2998 RMK A01 T01470066  RH  060%=      5-min Rain = 0
KWVS 241545Z 00004KT 15/07 A2999 RMK A01 T01480065  RH  059%=      5-min Rain = 0
KWVS 241550Z 00004KT 15/07 A2999 RMK A01 T01500068  RH  059%=      5-min Rain = 0
KWVS 241555Z 00004KT 15/07 A2999 RMK A01 T01500068  RH  059%=      5-min Rain = 0
KWVS 241600Z 35004KT 15/07 A2999 RMK A01 T01510069  RH  059%=      5-min Rain = 0
KWVS 241605Z 35004KT 15/07 A2999 RMK A01 T01520067  RH  059%=      5-min Rain = 0
KWVS 241610Z 32006KT 15/07 A2999 RMK A01 T01530072  RH  060%=      5-min Rain = 0
KWVS 241615Z 33006KT 15/07 A2999 RMK A01 T01530070  RH  059%=      5-min Rain = 0
KWVS 241620Z 31007KT 16/07 A2999 RMK A01 T01560073  RH  059%=      5-min Rain = 0
KWVS 241625Z 31005KT 16/07 A2999 RMK A01 T01580073  RH  059%=      5-min Rain = 0
KWVS 241630Z 30005KT 16/07 A2998 RMK A01 T01570069  RH  057%=      5-min Rain = 0
KWVS 241635Z 31004KT 16/07 A2998 RMK A01 T01570072  RH  058%=      5-min Rain = 0
KWVS 241640Z 32005KT 16/07 A2998 RMK A01 T01600074  RH  058%=      5-min Rain = 0
KWVS 241645Z 33006KT 16/07 A2998 RMK A01 T01590070  RH  057%=      5-min Rain = 0
KWVS 241650Z 32006KT 16/07 A2997 RMK A01 T01620074  RH  057%=      5-min Rain = 0
KWVS 241655Z 32008KT 17/07 A2997 RMK A01 T01650072  RH  056%=      5-min Rain = 0
KWVS 241700Z 33006KT 17/07 A2997 RMK A01 T01660074  RH  056%=      5-min Rain = 0
KWVS 241705Z 32010KT 17/07 A2997 RMK A01 T01660072  RH  055%=      5-min Rain = 0
KWVS 241710Z 31008KT 17/07 A2997 RMK A01 T01660072  RH  055%=      5-min Rain = 0
KWVS 241715Z 32008KT 17/07 A2996 RMK A01 T01670072  RH  055%=      5-min Rain = 0
KWVS 241720Z 33009KT 17/07 A2996 RMK A01 T01670072  RH  055%=      5-min Rain = 0
KWVS 241725Z 32010KT 17/07 A2996 RMK A01 T01680073  RH  055%=      5-min Rain = 0
KWVS 241730Z 33009KT 17/07 A2996 RMK A01 T01680073  RH  055%=      5-min Rain = 0
KWVS 241735Z 30011KT 17/08 A2996 RMK A01 T01700077  RH  056%=      5-min Rain = 0
KWVS 241740Z 32009G14KT 17/08 A2996 RMK A01 T01710075  RH  055%=      5-min Rain = 0
KWVS 241745Z 31010KT 17/07 A2996 RMK A01 T01700074  RH  055%=      5-min Rain = 0
KWVS 241750Z 31010G15KT 17/07 A2995 RMK A01 T01690074  RH  055%=      5-min Rain = 0
KWVS 241755Z 31008G14KT 17/07 A2995 RMK A01 T01700073  RH  054%=      5-min Rain = 0
KWVS 241800Z 31010KT 17/08 A2995 RMK A01 T01730079  RH  056%=      5-min Rain = 0
KWVS 241805Z 33010KT 17/08 A2995 RMK A01 T01730077  RH  055%=      5-min Rain = 0
KWVS 241810Z 33005KT 17/08 A2995 RMK A01 T01710076  RH  055%=      5-min Rain = 0
KWVS 241815Z 33006G11KT 18/08 A2995 RMK A01 T01750081  RH  056%=      5-min Rain = 0
KWVS 241820Z 33007KT 17/08 A2996 RMK A01 T01740078  RH  055%=      5-min Rain = 0
KWVS 241825Z 35003G8KT 18/08 A2996 RMK A01 T01750077  RH  054%=      5-min Rain = 0
KWVS 241830Z 34004KT 18/08 A2996 RMK A01 T01770078  RH  054%=      5-min Rain = 0
KWVS 241835Z 31002KT 18/08 A2996 RMK A01 T01790078  RH  053%=      5-min Rain = 0
KWVS 241840Z 30005KT 18/08 A2995 RMK A01 T01790081  RH  054%=      5-min Rain = 0
KWVS 241845Z 30005KT 18/08 A2995 RMK A01 T01770078  RH  053%=      5-min Rain = 0
KWVS 241850Z 31002KT 18/08 A2995 RMK A01 T01770078  RH  054%=      5-min Rain = 0
KWVS 241855Z 33005KT 18/08 A2995 RMK A01 T01780079  RH  054%=      5-min Rain = 0
KWVS 241900Z 30002KT 18/08 A2995 RMK A01 T01790077  RH  053%=      5-min Rain = 0
KWVS 241905Z 28002KT 18/08 A2995 RMK A01 T01810078  RH  052%=      5-min Rain = 0
KWVS 241910Z 35003KT 18/08 A2994 RMK A01 T01790078  RH  053%=      5-min Rain = 0
KWVS 241915Z 29004KT 18/08 A2994 RMK A01 T01810078  RH  052%=      5-min Rain = 0
KWVS 241920Z 30003KT 18/08 A2994 RMK A01 T01810079  RH  053%=      5-min Rain = 0
KWVS 241925Z 31003KT 18/08 A2994 RMK A01 T01830081  RH  053%=      5-min Rain = 0
KWVS 241930Z 28004KT 18/08 A2993 RMK A01 T01840079  RH  052%=      5-min Rain = 0
KWVS 241935Z 24005KT 19/08 A2993 RMK A01 T01860081  RH  052%=      5-min Rain = 0
KWVS 241940Z 22004KT 19/08 A2993 RMK A01 T01870080  RH  051%=      5-min Rain = 0
KWVS 241945Z 29004KT 19/08 A2993 RMK A01 T01880081  RH  051%=      5-min Rain = 0
KWVS 241950Z 28004KT 19/08 A2993 RMK A01 T01880081  RH  051%=      5-min Rain = 0
KWVS 241955Z 31005G10KT 19/08 A2993 RMK A01 T01860080  RH  051%=      5-min Rain = 0
KWVS 242000Z 29005KT 19/08 A2992 RMK A01 T01870078  RH  050%=      5-min Rain = 0
KWVS 242005Z 29003KT 18/08 A2992 RMK A01 T01840075  RH  050%=      5-min Rain = 0
KWVS 242010Z 24003KT 19/08 A2992 RMK A01 T01860077  RH  051%=      5-min Rain = 0
KWVS 242015Z 27001KT 19/08 A2992 RMK A01 T01880080  RH  051%=      5-min Rain = 0
KWVS 242020Z 31002KT 19/08 A2992 RMK A01 T01910084  RH  051%=      5-min Rain = 0
KWVS 242025Z 27005KT 19/09 A2992 RMK A01 T01910085  RH  052%=      5-min Rain = 0
KWVS 242030Z 31004KT 19/09 A2992 RMK A01 T01910085  RH  052%=      5-min Rain = 0
KWVS 242035Z 29003KT 19/08 A2992 RMK A01 T01890081  RH  051%=      5-min Rain = 0
KWVS 242040Z 20002KT 19/08 A2991 RMK A01 T01880082  RH  052%=      5-min Rain = 0
KWVS 242045Z 25005KT 19/08 A2991 RMK A01 T01900083  RH  051%=      5-min Rain = 0
KWVS 242050Z 29004KT 19/08 A2991 RMK A01 T01890081  RH  051%=      5-min Rain = 0
KWVS 242055Z 28004KT 19/08 A2991 RMK A01 T01860078  RH  051%=      5-min Rain = 0
KWVS 242100Z 27002KT 19/08 A2991 RMK A01 T01850080  RH  052%=      5-min Rain = 0
KWVS 242105Z 27002KT 19/08 A2991 RMK A01 T01860081  RH  052%=      5-min Rain = 0
KWVS 242110Z 29003KT 19/08 A299 RMK A01 T01870082  RH  052%=      5-min Rain = 0
KWVS 242115Z 32004KT 19/08 A299 RMK A01 T01860083  RH  052%=      5-min Rain = 0
KWVS 242120Z 30005KT 19/08 A299 RMK A01 T01860082  RH  052%=      5-min Rain = 0
KWVS 242125Z 29005KT 19/08 A299 RMK A01 T01860079  RH  051%=      5-min Rain = 0
KWVS 242130Z 31003KT 19/08 A299 RMK A01 T01860081  RH  052%=      5-min Rain = 0
KWVS 242135Z 29005KT 19/08 A299 RMK A01 T01870084  RH  053%=      5-min Rain = 0
KWVS 242140Z 29004KT 19/08 A299 RMK A01 T01870082  RH  052%=      5-min Rain = 0
KWVS 242145Z 21005KT 19/09 A2989 RMK A01 T01880086  RH  053%=      5-min Rain = 0
KWVS 242150Z 20004KT 19/08 A2989 RMK A01 T01870083  RH  052%=      5-min Rain = 0
KWVS 242155Z 19005KT 19/08 A2989 RMK A01 T01850083  RH  053%=      5-min Rain = 0
KWVS 242200Z 17003KT 19/08 A2989 RMK A01 T01860084  RH  053%=      5-min Rain = 0
KWVS 242205Z 19004KT 19/08 A2989 RMK A01 T01860084  RH  053%=      5-min Rain = 0
KWVS 242210Z 18003KT 19/08 A2989 RMK A01 T01860082  RH  052%=      5-min Rain = 0
KWVS 242215Z 19001KT 19/08 A2989 RMK A01 T01860079  RH  051%=      5-min Rain = 0
KWVS 242220Z 17001KT 19/08 A2988 RMK A01 T01870082  RH  052%=      5-min Rain = 0
KWVS 242225Z 21001KT 19/08 A2988 RMK A01 T01890079  RH  050%=      5-min Rain = 0
KWVS 242230Z 21001KT 19/08 A2988 RMK A01 T01890082  RH  051%=      5-min Rain = 0
KWVS 242235Z 15001KT 19/08 A2988 RMK A01 T01900082  RH  051%=      5-min Rain = 0
KWVS 242240Z 17000KT 19/08 A2987 RMK A01 T01910084  RH  051%=      5-min Rain = 0
KWVS 242245Z 32002KT 19/09 A2987 RMK A01 T01930088  RH  052%=      5-min Rain = 0
KWVS 242250Z 29001KT 19/08 A2987 RMK A01 T01910082  RH  051%=      5-min Rain = 0
KWVS 242255Z 22002KT 19/09 A2987 RMK A01 T01940086  RH  051%=      5-min Rain = 0
KWVS 242300Z 26002KT 19/08 A2987 RMK A01 T01930083  RH  050%=      5-min Rain = 0
KWVS 242305Z 32001KT 19/09 A2987 RMK A01 T01930086  RH  051%=      5-min Rain = 0
KWVS 242310Z 28002KT 19/08 A2987 RMK A01 T01920083  RH  050%=      5-min Rain = 0
KWVS 242315Z 29004KT 19/08 A2987 RMK A01 T01920083  RH  051%=      5-min Rain = 0
KWVS 242320Z 28004KT 19/09 A2986 RMK A01 T01940086  RH  051%=      5-min Rain = 0
KWVS 242325Z 29003KT 19/09 A2986 RMK A01 T01940085  RH  051%=      5-min Rain = 0
KWVS 242330Z 24003KT 19/08 A2986 RMK A01 T01940084  RH  050%=      5-min Rain = 0
KWVS 242335Z 24003KT 19/09 A2986 RMK A01 T01940086  RH  051%=      5-min Rain = 0
KWVS 242340Z 30003KT 20/09 A2986 RMK A01 T01980090  RH  051%=      5-min Rain = 0
KWVS 242345Z 32004KT 20/09 A2986 RMK A01 T01990088  RH  050%=      5-min Rain = 0
KWVS 242350Z 29002G7KT 20/08 A2986 RMK A01 T01970084  RH  049%=      5-min Rain = 0
KWVS 242355Z 27002KT 20/09 A2986 RMK A01 T01970087  RH  050%=      5-min Rain = 0
KWVS 250000Z 27003KT 20/09 A2985 RMK A01 T01970089  RH  051%=      5-min Rain = 0
KWVS 250005Z 28003KT 20/08 A2985 RMK A01 T01960084  RH  050%=      5-min Rain = 0
KWVS 250010Z 30001KT 20/09 A2985 RMK A01 T01990086  RH  050%=      5-min Rain = 0
KWVS 250015Z 32001KT 20/09 A2985 RMK A01 T02010087  RH  049%=      5-min Rain = 0
KWVS 250020Z 29001KT 20/08 A2985 RMK A01 T02000084  RH  049%=      5-min Rain = 0
KWVS 250025Z 26002KT 20/09 A2985 RMK A01 T02010088  RH  049%=      5-min Rain = 0
KWVS 250030Z 25003KT 20/09 A2985 RMK A01 T01970088  RH  051%=      5-min Rain = 0
KWVS 250035Z 24002KT 19/09 A2985 RMK A01 T01920091  RH  053%=      5-min Rain = 0
KWVS 250040Z 25003KT 19/09 A2985 RMK A01 T01920092  RH  054%=      5-min Rain = 0
KWVS 250045Z 25002KT 19/09 A2985 RMK A01 T01940091  RH  053%=      5-min Rain = 0
KWVS 250050Z 24002KT 19/09 A2985 RMK A01 T01930092  RH  054%=      5-min Rain = 0
KWVS 250055Z 24002KT 19/09 A2985 RMK A01 T01920089  RH  053%=      5-min Rain = 0
KWVS 250100Z 15003KT 19/10 A2985 RMK A01 T01890095  RH  056%=      5-min Rain = 0
KWVS 250105Z 14004KT 18/10 A2985 RMK A01 T01790103  RH  063%=      5-min Rain = 0
KWVS 250110Z 14006KT 17/11 A2985 RMK A01 T01700107  RH  068%=      5-min Rain = 0
KWVS 250115Z 14006KT 17/11 A2985 RMK A01 T01650106  RH  070%=      5-min Rain = 0
KWVS 250120Z 14006KT 16/11 A2986 RMK A01 T01610106  RH  072%=      5-min Rain = 0
KWVS 250125Z 15005KT 16/11 A2986 RMK A01 T01600107  RH  073%=      5-min Rain = 0
KWVS 250130Z 15006KT 16/11 A2986 RMK A01 T01560107  RH  075%=      5-min Rain = 0
KWVS 250135Z 15006KT 15/11 A2986 RMK A01 T01530106  RH  077%=      5-min Rain = 0
KWVS 250140Z 16007KT 15/11 A2986 RMK A01 T01520106  RH  077%=      5-min Rain = 0
KWVS 250145Z 15006KT 15/11 A2986 RMK A01 T01500106  RH  078%=      5-min Rain = 0
KWVS 250150Z 15006KT 15/11 A2986 RMK A01 T01480105  RH  078%=      5-min Rain = 0
KWVS 250155Z 15005KT 15/10 A2986 RMK A01 T01470104  RH  078%=      5-min Rain = 0
KWVS 250200Z 16004KT 15/10 A2987 RMK A01 T01470104  RH  078%=      5-min Rain = 0
KWVS 250205Z 16005KT 15/10 A2987 RMK A01 T01480103  RH  077%=      5-min Rain = 0
KWVS 250210Z 17005KT 15/10 A2987 RMK A01 T01470103  RH  077%=      5-min Rain = 0
KWVS 250215Z 18005KT 15/10 A2987 RMK A01 T01460101  RH  077%=      5-min Rain = 0
KWVS 250220Z 19006KT 14/10 A2987 RMK A01 T01430099  RH  077%=      5-min Rain = 0
KWVS 250225Z 20006KT 14/10 A2987 RMK A01 T01430098  RH  077%=      5-min Rain = 0
KWVS 250230Z 20006KT 14/10 A2987 RMK A01 T01430098  RH  077%=      5-min Rain = 0
KWVS 250235Z 19006KT 14/10 A2988 RMK A01 T01420098  RH  077%=      5-min Rain = 0
KWVS 250240Z 19006KT 14/10 A2988 RMK A01 T01400098  RH  078%=      5-min Rain = 0
KWVS 250245Z 19005KT 14/10 A2988 RMK A01 T01370098  RH  079%=      5-min Rain = 0
KWVS 250250Z 20006KT 14/10 A2988 RMK A01 T01370099  RH  080%=      5-min Rain = 0
KWVS 250255Z 20006KT 14/10 A2988 RMK A01 T01370100  RH  081%=      5-min Rain = 0
KWVS 250300Z 21006KT 14/10 A2988 RMK A01 T01360100  RH  082%=      5-min Rain = 0
KWVS 250305Z 21006KT 14/10 A2988 RMK A01 T01350101  RH  082%=      5-min Rain = 0
KWVS 250310Z 20006KT 13/10 A2988 RMK A01 T01330101  RH  083%=      5-min Rain = 0
KWVS 250315Z 20006KT 13/10 A2988 RMK A01 T01320101  RH  084%=      5-min Rain = 0
KWVS 250320Z 20005KT 13/10 A2989 RMK A01 T01310101  RH  085%=      5-min Rain = 0
KWVS 250325Z 20006KT 13/10 A2989 RMK A01 T01310101  RH  085%=      5-min Rain = 0
KWVS 250330Z 20006KT 13/10 A2989 RMK A01 T01300101  RH  085%=      5-min Rain = 0
KWVS 250335Z 20006KT 13/10 A2989 RMK A01 T01270100  RH  086%=      5-min Rain = 0
KWVS 250340Z 20006KT 13/10 A2989 RMK A01 T01260100  RH  087%=      5-min Rain = 0
KWVS 250345Z 20006KT 13/10 A2989 RMK A01 T01270100  RH  086%=      5-min Rain = 0
KWVS 250350Z 21006KT 13/10 A2989 RMK A01 T01260100  RH  087%=      5-min Rain = 0
KWVS 250355Z 21006KT 13/10 A2989 RMK A01 T01250100  RH  088%=      5-min Rain = 0
KWVS 250400Z 20006KT 13/10 A2989 RMK A01 T01250100  RH  088%=      5-min Rain = 0
KWVS 250405Z 20006KT 12/10 A2989 RMK A01 T01240100  RH  088%=      5-min Rain = 0
KWVS 250410Z 19006KT 13/10 A2989 RMK A01 T01250100  RH  088%=      5-min Rain = 0
KWVS 250415Z 19006KT 13/10 A2989 RMK A01 T01250100  RH  087%=      5-min Rain = 0
KWVS 250420Z 19006KT 12/10 A2989 RMK A01 T01230100  RH  088%=      5-min Rain = 0
KWVS 250425Z 20006KT 12/10 A2989 RMK A01 T01240100  RH  088%=      5-min Rain = 0
KWVS 250430Z 20006KT 12/10 A2989 RMK A01 T01240100  RH  088%=      5-min Rain = 0
KWVS 250435Z 20006KT 13/10 A2989 RMK A01 T01260101  RH  088%=      5-min Rain = 0
KWVS 250440Z 20005KT 12/10 A2989 RMK A01 T01240100  RH  089%=      5-min Rain = 0
KWVS 250445Z 19005KT 12/10 A2989 RMK A01 T01210099  RH  089%=      5-min Rain = 0
KWVS 250450Z 20005KT 12/10 A2989 RMK A01 T01200099  RH  090%=      5-min Rain = 0
KWVS 250455Z 21004KT 12/10 A2989 RMK A01 T01200099  RH  090%=      5-min Rain = 0

Page generated in 0.009 seconds.